| time (UTC) | temp C | wind direction | speed KPH | gust KPH | rain 1hr cm | rain 24hr cm | rain mn cm | humidity % | barometer mb |
| 20260510191558 | 26 | 309 | 3.2 | 8.0 | 0.00 | 0.00 | 0.00 | 72 | 1015.8 |
| 20260510190054 | 26 | 248 | 1.6 | 6.4 | 0.00 | 0.00 | 0.00 | 72 | 1015.9 |
| 20260510184604 | 26 | 0 | 4.8 | 8.0 | 0.00 | 0.00 | 0.00 | 72 | 1016.1 |
| 20260510183056 | 25 | 345 | 3.2 | 9.7 | 0.00 | 0.00 | 0.00 | 74 | 1016.2 |
| 20260510181607 | 25 | 158 | 4.8 | 12.9 | 0.00 | 0.00 | 0.00 | 74 | 1016.5 |
| 20260510180108 | 25 | 333 | 3.2 | 8.0 | 0.00 | 0.00 | 0.00 | 77 | 1016.7 |
| 20260510174555 | 25 | 43 | 4.8 | 14.5 | 0.00 | 0.00 | 0.00 | 76 | 1016.7 |
| 20260510173102 | 24 | 0 | 4.8 | 11.3 | 0.00 | 0.00 | 0.00 | 80 | 1017.0 |
| 20260510171603 | 24 | 322 | 1.6 | 4.8 | 0.00 | 0.00 | 0.00 | 79 | 1017.3 |
| 20260510170101 | 23 | 47 | 3.2 | 12.9 | 0.00 | 0.00 | 0.00 | 80 | 1017.4 |
| 20260510164603 | 23 | 334 | 3.2 | 12.9 | 0.00 | 0.00 | 0.00 | 80 | 1017.7 |
| 20260510163056 | 23 | 263 | 3.2 | 8.0 | 0.00 | 0.00 | 0.00 | 82 | 1017.8 |
| 20260510161604 | 22 | 352 | 1.6 | 8.0 | 0.00 | 0.00 | 0.00 | 83 | 1017.9 |
| 20260510160056 | 22 | 52 | 4.8 | 12.9 | 0.00 | 0.00 | 0.00 | 83 | 1017.9 |
| 20260510154558 | 21 | 51 | 1.6 | 8.0 | 0.00 | 0.05 | 0.00 | 85 | 1018.0 |
| 20260510153058 | 21 | 240 | 1.6 | 6.4 | 0.00 | 0.05 | 0.00 | 86 | 1018.1 |
| 20260510151556 | 21 | 0 | 1.6 | 4.8 | 0.00 | 0.05 | 0.00 | 90 | 1018.0 |
| 20260510150119 | 20 | 0 | 0.0 | 3.2 | 0.00 | 0.05 | 0.00 | 91 | 1018.0 |
| 20260510144552 | 20 | 0 | 0.0 | 4.8 | 0.00 | 0.66 | 0.00 | 91 | 1018.1 |
| 20260510143054 | 20 | 0 | 1.6 | 6.4 | 0.00 | 0.66 | 0.00 | 91 | 1017.9 |
| 20260510141555 | 19 | 0 | 1.6 | 12.9 | 0.00 | 0.66 | 0.00 | 94 | 1017.8 |
| 20260510140057 | 19 | 0 | 1.6 | 8.0 | 0.00 | 0.66 | 0.00 | 95 | 1017.7 |
| 20260510134556 | 19 | 44 | 0.0 | 4.8 | 0.00 | 1.19 | 0.00 | 96 | 1017.6 |
| 20260510133056 | 18 | 59 | 3.2 | 8.0 | 0.00 | 1.19 | 0.00 | 97 | 1017.5 |
| 20260510131551 | 18 | 0 | 0.0 | 1.6 | 0.00 | 1.19 | 0.00 | 98 | 1017.4 |
| 20260510130054 | 18 | 0 | 0.0 | 3.2 | 0.00 | 1.19 | 0.00 | 98 | 1017.3 |
| 20260510124603 | 18 | 0 | 0.0 | 1.6 | 0.00 | 1.83 | 0.00 | 98 | 1017.1 |
| 20260510123059 | 18 | 0 | 0.0 | 3.2 | 0.00 | 1.83 | 0.00 | 98 | 1016.8 |
| 20260510121554 | 17 | 76 | 0.0 | 4.8 | 0.00 | 1.83 | 0.00 | 98 | 1016.5 |
| 20260510120054 | 17 | 0 | 0.0 | 3.2 | 0.00 | 1.83 | 0.00 | 98 | 1016.2 |
| 20260510114601 | 17 | 0 | 0.0 | 1.6 | 0.00 | 2.21 | 0.00 | 98 | 1015.9 |
| 20260510113056 | 17 | 0 | 0.0 | 1.6 | 0.00 | 2.21 | 0.00 | 98 | 1015.7 |
| 20260510111604 | 17 | 0 | 0.0 | 1.6 | 0.00 | 2.21 | 0.00 | 98 | 1015.4 |
| 20260510110055 | 17 | 0 | 0.0 | 0.0 | 0.00 | 2.21 | 0.00 | 98 | 1015.1 |
| 20260510104557 | 17 | 0 | 0.0 | 3.2 | 0.00 | 2.21 | 0.00 | 98 | 1014.9 |
| 20260510103103 | 17 | 310 | 0.0 | 1.6 | 0.00 | 2.21 | 0.00 | 98 | 1014.6 |
| 20260510101559 | 17 | 0 | 0.0 | 1.6 | 0.00 | 2.21 | 0.00 | 98 | 1014.4 |
| 20260510100055 | 17 | 0 | 0.0 | 0.0 | 0.00 | 2.21 | 0.00 | 98 | 1014.4 |
| 20260510094607 | 17 | 0 | 0.0 | 3.2 | 0.00 | 2.21 | 0.00 | 98 | 1014.3 |
| 20260510093114 | 17 | 0 | 0.0 | 3.2 | 0.00 | 2.21 | 0.00 | 98 | 1014.3 |
| 20260510091553 | 17 | 0 | 0.0 | 1.6 | 0.00 | 2.21 | 0.00 | 98 | 1014.2 |
| 20260510090053 | 17 | 310 | 0.0 | 1.6 | 0.00 | 2.21 | 0.00 | 98 | 1014.2 |
| 20260510084554 | 17 | 0 | 0.0 | 3.2 | 0.00 | 2.21 | 0.00 | 98 | 1014.2 |
| 20260510083106 | 17 | 0 | 0.0 | 0.0 | 0.00 | 2.21 | 0.00 | 98 | 1014.1 |
| 20260510081554 | 17 | 0 | 0.0 | 1.6 | 0.00 | 2.21 | 0.00 | 98 | 1013.9 |
| 20260510080058 | 17 | 0 | 0.0 | 0.0 | 0.00 | 2.21 | 0.00 | 98 | 1013.7 |
| 20260510074556 | 17 | 0 | 0.0 | 0.0 | 0.00 | 2.21 | 0.00 | 98 | 1013.8 |
| 20260510073058 | 17 | 0 | 0.0 | 1.6 | 0.00 | 2.21 | 0.00 | 97 | 1013.7 |
| 20260510071555 | 17 | 310 | 0.0 | 1.6 | 0.00 | 2.21 | 0.00 | 97 | 1013.5 |
| 20260510070058 | 17 | 0 | 0.0 | 1.6 | 0.00 | 2.21 | 0.00 | 97 | 1013.4 |
| 20260510064604 | 17 | 0 | 0.0 | 1.6 | 0.00 | 2.21 | 0.00 | 97 | 1013.3 |
| 20260510063059 | 17 | 0 | 0.0 | 1.6 | 0.00 | 2.21 | 0.00 | 97 | 1013.4 |
| 20260510061559 | 17 | 0 | 0.0 | 1.6 | 0.00 | 2.21 | 0.00 | 97 | 1013.4 |
| 20260510060056 | 17 | 0 | 0.0 | 1.6 | 0.00 | 2.21 | 0.00 | 97 | 1013.2 |
| 20260510054552 | 17 | 0 | 0.0 | 1.6 | 0.00 | 2.21 | 0.00 | 97 | 1013.4 |
| 20260510053052 | 17 | 0 | 0.0 | 3.2 | 0.00 | 2.21 | 0.00 | 97 | 1013.3 |
| 20260510051602 | 17 | 0 | 0.0 | 0.0 | 0.00 | 2.21 | 0.00 | 97 | 1013.6 |
| 20260510050055 | 17 | 0 | 0.0 | 3.2 | 0.00 | 2.21 | 0.00 | 97 | 1013.8 |
| 20260510044610 | 17 | 0 | 0.0 | 1.6 | 0.00 | 2.21 | 2.21 | 97 | 1014.0 |
| 20260510043057 | 17 | 310 | 0.0 | 3.2 | 0.00 | 2.21 | 2.21 | 97 | 1014.2 |
| 20260510041554 | 17 | 0 | 0.0 | 1.6 | 0.00 | 2.21 | 2.21 | 97 | 1014.2 |
| 20260510040057 | 17 | 0 | 0.0 | 3.2 | 0.00 | 2.21 | 2.21 | 97 | 1014.2 |
| 20260510034600 | 17 | 0 | 1.6 | 3.2 | 0.00 | 2.21 | 2.21 | 97 | 1014.5 |
| 20260510033109 | 17 | 0 | 0.0 | 1.6 | 0.00 | 2.21 | 2.21 | 97 | 1014.1 |
| 20260510031557 | 18 | 277 | 1.6 | 4.8 | 0.00 | 2.21 | 2.21 | 97 | 1014.1 |
| 20260510030107 | 18 | 0 | 0.0 | 1.6 | 0.00 | 2.21 | 2.21 | 97 | 1014.1 |
| 20260510024603 | 18 | 309 | 0.0 | 1.6 | 0.00 | 2.21 | 2.21 | 97 | 1014.3 |
| 20260510023055 | 18 | 0 | 0.0 | 3.2 | 0.00 | 2.21 | 2.21 | 96 | 1014.2 |
| 20260510021601 | 18 | 0 | 0.0 | 1.6 | 0.00 | 2.21 | 2.21 | 96 | 1013.8 |
| 20260510020056 | 18 | 0 | 0.0 | 1.6 | 0.00 | 2.21 | 2.21 | 96 | 1013.8 |
| 20260510014559 | 18 | 0 | 0.0 | 3.2 | 0.00 | 2.21 | 2.21 | 96 | 1013.9 |
| 20260510013055 | 18 | 0 | 0.0 | 1.6 | 0.00 | 2.21 | 2.21 | 96 | 1013.6 |
| 20260510011554 | 18 | 0 | 0.0 | 3.2 | 0.00 | 2.21 | 2.21 | 96 | 1013.9 |
| 20260510010055 | 18 | 352 | 1.6 | 3.2 | 0.00 | 2.21 | 2.21 | 96 | 1014.0 |
| 20260510004557 | 18 | 0 | 0.0 | 1.6 | 0.00 | 2.21 | 2.21 | 96 | 1013.2 |
| 20260510003057 | 18 | 0 | 0.0 | 1.6 | 0.00 | 2.21 | 2.21 | 96 | 1013.0 |
| 20260510001553 | 18 | 164 | 0.0 | 1.6 | 0.00 | 2.21 | 2.21 | 95 | 1013.0 |
| 20260510000054 | 18 | 0 | 0.0 | 0.0 | 0.00 | 2.21 | 2.21 | 95 | 1012.9 |
| 20260509234556 | 18 | 0 | 0.0 | 3.2 | 0.00 | 2.24 | 2.21 | 95 | 1012.7 |
| 20260509233101 | 18 | 0 | 0.0 | 0.0 | 0.00 | 2.24 | 2.21 | 95 | 1012.5 |
| 20260509231556 | 18 | 89 | 0.0 | 3.2 | 0.00 | 2.24 | 2.21 | 95 | 1012.5 |
| 20260509230100 | 19 | 0 | 0.0 | 1.6 | 0.00 | 2.24 | 2.21 | 94 | 1012.7 |
| 20260509224600 | 19 | 0 | 0.0 | 1.6 | 0.00 | 2.31 | 2.21 | 93 | 1012.6 |
| 20260509223059 | 19 | 0 | 0.0 | 3.2 | 0.00 | 2.31 | 2.21 | 94 | 1012.1 |
| 20260509221600 | 18 | 0 | 0.0 | 3.2 | 0.00 | 2.31 | 2.21 | 93 | 1012.1 |
| 20260509220106 | 19 | 194 | 0.0 | 1.6 | 0.00 | 2.31 | 2.21 | 94 | 1012.0 |
| 20260509214600 | 18 | 0 | 0.0 | 0.0 | 0.00 | 2.67 | 2.21 | 95 | 1012.1 |
| 20260509213124 | 18 | 0 | 0.0 | 1.6 | 0.00 | 2.67 | 2.21 | 94 | 1011.9 |
| 20260509211555 | 18 | 0 | 0.0 | 3.2 | 0.00 | 2.67 | 2.21 | 94 | 1012.1 |
| 20260509210106 | 18 | 0 | 0.0 | 3.2 | 0.00 | 2.67 | 2.21 | 94 | 1012.2 |
| 20260509204557 | 18 | 273 | 1.6 | 6.4 | 0.00 | 3.33 | 2.21 | 93 | 1012.1 |
| 20260509203054 | 18 | 222 | 3.2 | 9.7 | 0.00 | 3.33 | 2.21 | 94 | 1012.3 |
| 20260509201554 | 18 | 174 | 3.2 | 8.0 | 0.00 | 3.33 | 2.21 | 94 | 1012.1 |
| 20260509200103 | 18 | 248 | 3.2 | 12.9 | 0.00 | 3.33 | 2.21 | 94 | 1012.2 |
| 20260509194553 | 18 | 213 | 1.6 | 11.3 | 0.00 | 3.53 | 2.21 | 95 | 1012.3 |
| 20260509193055 | 18 | 234 | 3.2 | 9.7 | 0.00 | 3.53 | 2.21 | 95 | 1012.4 |